sensor_id;sensor_type;location;lat;lon;timestamp;pressure;altitude;pressure_sealevel;temperature;humidity
4012;BME280;2020;48.682;9.024;2023-11-25T00:02:10;95580.41;;;-0.12;100.00
4012;BME280;2020;48.682;9.024;2023-11-25T00:04:36;95579.69;;;-0.14;100.00
4012;BME280;2020;48.682;9.024;2023-11-25T00:07:01;95585.53;;;-0.12;100.00
4012;BME280;2020;48.682;9.024;2023-11-25T00:09:26;95582.25;;;-0.14;100.00
4012;BME280;2020;48.682;9.024;2023-11-25T00:11:51;95584.91;;;-0.16;100.00
4012;BME280;2020;48.682;9.024;2023-11-25T00:14:17;95590.72;;;-0.13;100.00
4012;BME280;2020;48.682;9.024;2023-11-25T00:16:42;95574.81;;;-0.17;100.00
4012;BME280;2020;48.682;9.024;2023-11-25T00:19:07;95571.53;;;-0.19;100.00
4012;BME280;2020;48.682;9.024;2023-11-25T00:21:32;95585.25;;;-0.20;100.00
4012;BME280;2020;48.682;9.024;2023-11-25T00:23:57;95585.25;;;-0.20;100.00
4012;BME280;2020;48.682;9.024;2023-11-25T00:26:23;95586.19;;;-0.21;100.00
4012;BME280;2020;48.682;9.024;2023-11-25T00:28:50;95586.66;;;-0.16;100.00
4012;BME280;2020;48.682;9.024;2023-11-25T00:31:16;95581.34;;;-0.13;100.00
4012;BME280;2020;48.682;9.024;2023-11-25T00:33:41;95585.31;;;-0.09;100.00
4012;BME280;2020;48.682;9.024;2023-11-25T00:36:07;95582.53;;;-0.06;100.00
4012;BME280;2020;48.682;9.024;2023-11-25T00:38:32;95590.91;;;-0.04;100.00
4012;BME280;2020;48.682;9.024;2023-11-25T00:40:58;95592.31;;;0.01;100.00
4012;BME280;2020;48.682;9.024;2023-11-25T00:43:23;95600.69;;;0.03;100.00
4012;BME280;2020;48.682;9.024;2023-11-25T00:45:49;95599.28;;;-0.02;100.00
4012;BME280;2020;48.682;9.024;2023-11-25T00:48:14;95609.28;;;0.02;100.00
4012;BME280;2020;48.682;9.024;2023-11-25T00:50:41;95617.66;;;0.04;100.00
4012;BME280;2020;48.682;9.024;2023-11-25T00:53:06;95626.06;;;0.06;100.00
4012;BME280;2020;48.682;9.024;2023-11-25T00:55:32;95628.50;;;0.07;100.00
4012;BME280;2020;48.682;9.024;2023-11-25T00:57:58;95625.13;;;0.07;100.00
4012;BME280;2020;48.682;9.024;2023-11-25T01:00:23;95631.16;;;0.06;100.00
4012;BME280;2020;48.682;9.024;2023-11-25T01:02:51;95632.81;;;0.07;100.00
4012;BME280;2020;48.682;9.024;2023-11-25T01:05:16;95648.16;;;0.07;100.00
4012;BME280;2020;48.682;9.024;2023-11-25T01:07:42;95641.19;;;0.09;100.00
4012;BME280;2020;48.682;9.024;2023-11-25T01:10:07;95648.16;;;0.07;100.00
4012;BME280;2020;48.682;9.024;2023-11-25T01:12:33;95658.84;;;0.01;100.00
4012;BME280;2020;48.682;9.024;2023-11-25T01:15:01;95663.03;;;0.02;100.00
4012;BME280;2020;48.682;9.024;2023-11-25T01:17:26;95664.16;;;-0.03;100.00
4012;BME280;2020;48.682;9.024;2023-11-25T01:19:51;95668.56;;;-0.05;100.00
4012;BME280;2020;48.682;9.024;2023-11-25T01:22:17;95674.41;;;-0.03;100.00
4012;BME280;2020;48.682;9.024;2023-11-25T01:24:42;95698.34;;;-0.04;100.00
4012;BME280;2020;48.682;9.024;2023-11-25T01:27:08;95696.72;;;-0.05;100.00
4012;BME280;2020;48.682;9.024;2023-11-25T01:29:33;95695.88;;;-0.05;100.00
4012;BME280;2020;48.682;9.024;2023-11-25T01:32:00;95706.97;;;-0.05;100.00
4012;BME280;2020;48.682;9.024;2023-11-25T01:34:25;95707.16;;;-0.08;100.00
4012;BME280;2020;48.682;9.024;2023-11-25T01:36:50;95703.91;;;-0.10;100.00
4012;BME280;2020;48.682;9.024;2023-11-25T01:39:15;95717.84;;;-0.14;100.00
4012;BME280;2020;48.682;9.024;2023-11-25T01:41:42;95721.09;;;-0.12;100.00
4012;BME280;2020;48.682;9.024;2023-11-25T01:44:08;95725.31;;;-0.11;100.00
4012;BME280;2020;48.682;9.024;2023-11-25T01:46:35;95724.81;;;-0.16;99.54
4012;BME280;2020;48.682;9.024;2023-11-25T01:49:05;95728.28;;;-0.17;99.31
4012;BME280;2020;48.682;9.024;2023-11-25T01:51:32;95726.44;;;-0.15;98.10
4012;BME280;2020;48.682;9.024;2023-11-25T01:54:00;95735.03;;;-0.16;98.12
4012;BME280;2020;48.682;9.024;2023-11-25T01:56:27;95725.00;;;-0.19;98.39
4012;BME280;2020;48.682;9.024;2023-11-25T01:58:53;95718.28;;;-0.20;97.75
4012;BME280;2020;48.682;9.024;2023-11-25T02:01:19;95726.75;;;-0.20;97.10
4012;BME280;2020;48.682;9.024;2023-11-25T02:03:45;95734.31;;;-0.18;96.79
4012;BME280;2020;48.682;9.024;2023-11-25T02:06:11;95724.31;;;-0.21;96.03
4012;BME280;2020;48.682;9.024;2023-11-25T02:08:36;95737.09;;;-0.21;96.62
4012;BME280;2020;48.682;9.024;2023-11-25T02:11:01;95743.84;;;-0.20;96.96
4012;BME280;2020;48.682;9.024;2023-11-25T02:13:27;95742.22;;;-0.21;97.14
4012;BME280;2020;48.682;9.024;2023-11-25T02:15:52;95740.38;;;-0.19;97.04
4012;BME280;2020;48.682;9.024;2023-11-25T02:18:17;95750.59;;;-0.19;97.34
4012;BME280;2020;48.682;9.024;2023-11-25T02:20:43;95750.81;;;-0.22;98.11
4012;BME280;2020;48.682;9.024;2023-11-25T02:23:17;95752.66;;;-0.24;97.89
4012;BME280;2020;48.682;9.024;2023-11-25T02:25:46;95755.72;;;-0.19;98.07
4012;BME280;2020;48.682;9.024;2023-11-25T02:28:13;95766.16;;;-0.22;96.74
4012;BME280;2020;48.682;9.024;2023-11-25T02:30:39;95765.66;;;-0.27;97.31
4012;BME280;2020;48.682;9.024;2023-11-25T02:33:04;95769.84;;;-0.26;97.39
4012;BME280;2020;48.682;9.024;2023-11-25T02:35:32;95773.31;;;-0.27;96.23
4012;BME280;2020;48.682;9.024;2023-11-25T02:37:57;95768.44;;;-0.31;95.35
4012;BME280;2020;48.682;9.024;2023-11-25T02:40:22;95774.56;;;-0.33;94.00
4012;BME280;2020;48.682;9.024;2023-11-25T02:42:49;95778.88;;;-0.34;93.08
4012;BME280;2020;48.682;9.024;2023-11-25T02:45:16;95775.38;;;-0.33;93.56
4012;BME280;2020;48.682;9.024;2023-11-25T02:47:45;95786.22;;;-0.29;95.39
4012;BME280;2020;48.682;9.024;2023-11-25T02:50:12;95784.69;;;-0.32;95.81
4012;BME280;2020;48.682;9.024;2023-11-25T02:52:38;95798.06;;;-0.28;94.66
4012;BME280;2020;48.682;9.024;2023-11-25T02:55:04;95797.28;;;-0.28;95.99
4012;BME280;2020;48.682;9.024;2023-11-25T02:57:29;95793.78;;;-0.27;96.35
4012;BME280;2020;48.682;9.024;2023-11-25T02:59:56;95804.03;;;-0.27;95.88
4012;BME280;2020;48.682;9.024;2023-11-25T03:02:24;95803.81;;;-0.24;96.83
4012;BME280;2020;48.682;9.024;2023-11-25T03:04:49;95805.44;;;-0.23;96.39
4012;BME280;2020;48.682;9.024;2023-11-25T03:07:15;95806.25;;;-0.23;96.74
4012;BME280;2020;48.682;9.024;2023-11-25T03:09:40;95810.78;;;-0.26;97.10
4012;BME280;2020;48.682;9.024;2023-11-25T03:12:08;95813.84;;;-0.21;97.62
4012;BME280;2020;48.682;9.024;2023-11-25T03:14:34;95821.00;;;-0.26;97.40
4012;BME280;2020;48.682;9.024;2023-11-25T03:17:00;95824.47;;;-0.27;98.23
4012;BME280;2020;48.682;9.024;2023-11-25T03:19:25;95821.00;;;-0.26;98.41
4012;BME280;2020;48.682;9.024;2023-11-25T03:21:52;95835.63;;;-0.28;97.44
4012;BME280;2020;48.682;9.024;2023-11-25T03:24:17;95845.88;;;-0.28;98.29
4012;BME280;2020;48.682;9.024;2023-11-25T03:26:46;95843.72;;;-0.35;98.57
4012;BME280;2020;48.682;9.024;2023-11-25T03:29:12;95843.50;;;-0.32;98.71
4012;BME280;2020;48.682;9.024;2023-11-25T03:31:41;95852.31;;;-0.36;97.78
4012;BME280;2020;48.682;9.024;2023-11-25T03:34:06;95849.03;;;-0.38;98.21
4012;BME280;2020;48.682;9.024;2023-11-25T03:36:32;95849.97;;;-0.39;98.45
4012;BME280;2020;48.682;9.024;2023-11-25T03:38:57;95849.97;;;-0.39;99.65
4012;BME280;2020;48.682;9.024;2023-11-25T03:41:22;95852.94;;;-0.45;99.28
4012;BME280;2020;48.682;9.024;2023-11-25T03:43:48;95853.84;;;-0.46;100.00
4012;BME280;2020;48.682;9.024;2023-11-25T03:46:13;95866.44;;;-0.43;100.00
4012;BME280;2020;48.682;9.024;2023-11-25T03:48:39;95874.81;;;-0.41;100.00
4012;BME280;2020;48.682;9.024;2023-11-25T03:51:04;95873.38;;;-0.45;100.00
4012;BME280;2020;48.682;9.024;2023-11-25T03:53:31;95869.91;;;-0.44;100.00
4012;BME280;2020;48.682;9.024;2023-11-25T03:55:56;95865.00;;;-0.47;99.42
4012;BME280;2020;48.682;9.024;2023-11-25T03:58:25;95859.88;;;-0.47;99.34
4012;BME280;2020;48.682;9.024;2023-11-25T04:00:50;95865.00;;;-0.47;99.34
4012;BME280;2020;48.682;9.024;2023-11-25T04:03:15;95859.97;;;-0.49;98.95
4012;BME280;2020;48.682;9.024;2023-11-25T04:05:41;95865.00;;;-0.47;98.64
4012;BME280;2020;48.682;9.024;2023-11-25T04:08:06;95879.72;;;-0.51;98.33
4012;BME280;2020;48.682;9.024;2023-11-25T04:10:31;95866.53;;;-0.57;97.56
4012;BME280;2020;48.682;9.024;2023-11-25T04:12:56;95870.81;;;-0.58;98.96
4012;BME280;2020;48.682;9.024;2023-11-25T04:15:22;95875.22;;;-0.60;98.31
4012;BME280;2020;48.682;9.024;2023-11-25T04:17:47;95883.00;;;-0.62;98.54
4012;BME280;2020;48.682;9.024;2023-11-25T04:20:13;95876.44;;;-0.66;98.01
4012;BME280;2020;48.682;9.024;2023-11-25T04:22:46;95885.91;;;-0.68;97.11
4012;BME280;2020;48.682;9.024;2023-11-25T04:25:14;95891.88;;;-0.67;96.89
4012;BME280;2020;48.682;9.024;2023-11-25T04:27:41;95901.81;;;-0.63;97.23
4012;BME280;2020;48.682;9.024;2023-11-25T04:30:08;95902.81;;;-0.65;96.98
4012;BME280;2020;48.682;9.024;2023-11-25T04:32:34;95895.06;;;-0.64;97.01
4012;BME280;2020;48.682;9.024;2023-11-25T04:35:00;95905.28;;;-0.64;97.77
4012;BME280;2020;48.682;9.024;2023-11-25T04:37:25;95912.41;;;-0.69;96.85
4012;BME280;2020;48.682;9.024;2023-11-25T04:39:51;95907.28;;;-0.69;96.68
4012;BME280;2020;48.682;9.024;2023-11-25T04:42:16;95907.47;;;-0.72;97.18
4012;BME280;2020;48.682;9.024;2023-11-25T04:44:41;95905.13;;;-0.75;98.24
4012;BME280;2020;48.682;9.024;2023-11-25T04:47:06;95904.59;;;-0.80;99.25
4012;BME280;2020;48.682;9.024;2023-11-25T04:49:32;95920.97;;;-0.83;98.98
4012;BME280;2020;48.682;9.024;2023-11-25T04:51:57;95915.94;;;-0.84;99.22
4012;BME280;2020;48.682;9.024;2023-11-25T04:54:22;95911.56;;;-0.82;98.62
4012;BME280;2020;48.682;9.024;2023-11-25T04:56:47;95919.22;;;-0.82;99.61
4012;BME280;2020;48.682;9.024;2023-11-25T04:59:13;95909.91;;;-0.83;99.31
4012;BME280;2020;48.682;9.024;2023-11-25T05:01:38;95914.09;;;-0.82;97.83
4012;BME280;2020;48.682;9.024;2023-11-25T05:04:04;95911.94;;;-0.89;98.96
4012;BME280;2020;48.682;9.024;2023-11-25T05:06:30;95913.78;;;-0.91;97.85
4012;BME280;2020;48.682;9.024;2023-11-25T05:08:55;95914.63;;;-0.90;98.41
4012;BME280;2020;48.682;9.024;2023-11-25T05:11:21;95911.94;;;-0.89;97.86
4012;BME280;2020;48.682;9.024;2023-11-25T05:13:46;95915.41;;;-0.90;98.52
4012;BME280;2020;48.682;9.024;2023-11-25T05:16:11;95916.25;;;-0.89;99.71
4012;BME280;2020;48.682;9.024;2023-11-25T05:18:36;95923.81;;;-0.88;98.98
4012;BME280;2020;48.682;9.024;2023-11-25T05:21:02;95927.06;;;-0.85;99.03
4012;BME280;2020;48.682;9.024;2023-11-25T05:23:28;95937.31;;;-0.85;98.94
4012;BME280;2020;48.682;9.024;2023-11-25T05:25:53;95939.06;;;-0.86;99.23
4012;BME280;2020;48.682;9.024;2023-11-25T05:28:19;95944.06;;;-0.84;99.36
4012;BME280;2020;48.682;9.024;2023-11-25T05:30:44;95949.88;;;-0.82;99.93
4012;BME280;2020;48.682;9.024;2023-11-25T05:33:10;95954.19;;;-0.83;99.87
4012;BME280;2020;48.682;9.024;2023-11-25T05:35:35;95951.00;;;-0.86;98.57
4012;BME280;2020;48.682;9.024;2023-11-25T05:38:01;95955.91;;;-0.83;98.88
4012;BME280;2020;48.682;9.024;2023-11-25T05:40:26;95942.41;;;-0.85;98.66
4012;BME280;2020;48.682;9.024;2023-11-25T05:42:55;95954.47;;;-0.88;99.19
4012;BME280;2020;48.682;9.024;2023-11-25T05:45:22;95945.88;;;-0.86;98.94
4012;BME280;2020;48.682;9.024;2023-11-25T05:47:51;95944.25;;;-0.88;99.62
4012;BME280;2020;48.682;9.024;2023-11-25T05:50:17;95949.16;;;-0.84;99.71
4012;BME280;2020;48.682;9.024;2023-11-25T05:52:45;95957.47;;;-0.81;99.70
4012;BME280;2020;48.682;9.024;2023-11-25T05:55:11;95960.09;;;-0.82;100.00
4012;BME280;2020;48.682;9.024;2023-11-25T05:57:37;95959.38;;;-0.84;100.00
4012;BME280;2020;48.682;9.024;2023-11-25T06:00:02;95959.31;;;-0.83;100.00
4012;BME280;2020;48.682;9.024;2023-11-25T06:02:28;95972.88;;;-0.82;100.00
4012;BME280;2020;48.682;9.024;2023-11-25T06:04:53;95979.81;;;-0.84;100.00
4012;BME280;2020;48.682;9.024;2023-11-25T06:07:19;95973.72;;;-0.82;100.00
4012;BME280;2020;48.682;9.024;2023-11-25T06:09:44;95988.22;;;-0.82;100.00
4012;BME280;2020;48.682;9.024;2023-11-25T06:12:09;95985.84;;;-0.85;100.00
4012;BME280;2020;48.682;9.024;2023-11-25T06:14:36;95983.28;;;-0.85;100.00
4012;BME280;2020;48.682;9.024;2023-11-25T06:17:03;95985.56;;;-0.81;100.00
4012;BME280;2020;48.682;9.024;2023-11-25T06:19:29;95988.22;;;-0.82;100.00
4012;BME280;2020;48.682;9.024;2023-11-25T06:21:56;95988.78;;;-0.92;100.00
4012;BME280;2020;48.682;9.024;2023-11-25T06:24:23;95990.03;;;-0.84;100.00
4012;BME280;2020;48.682;9.024;2023-11-25T06:26:48;95990.50;;;-0.78;100.00
4012;BME280;2020;48.682;9.024;2023-11-25T06:29:15;95979.81;;;-0.84;100.00
4012;BME280;2020;48.682;9.024;2023-11-25T06:31:40;95976.94;;;-0.93;100.00
4012;BME280;2020;48.682;9.024;2023-11-25T06:34:09;95976.50;;;-0.99;100.00
4012;BME280;2020;48.682;9.024;2023-11-25T06:36:34;95974.97;;;-1.02;100.00
4012;BME280;2020;48.682;9.024;2023-11-25T06:39:00;95971.28;;;-0.98;100.00
4012;BME280;2020;48.682;9.024;2023-11-25T06:41:25;95978.69;;;-0.93;100.00
4012;BME280;2020;48.682;9.024;2023-11-25T06:43:52;95980.22;;;-0.91;100.00
4012;BME280;2020;48.682;9.024;2023-11-25T06:46:18;95976.34;;;-0.83;100.00
4012;BME280;2020;48.682;9.024;2023-11-25T06:48:43;95981.06;;;-0.77;100.00
4012;BME280;2020;48.682;9.024;2023-11-25T06:51:09;95972.28;;;-0.73;100.00
4012;BME280;2020;48.682;9.024;2023-11-25T06:53:37;95974.84;;;-0.73;100.00
4012;BME280;2020;48.682;9.024;2023-11-25T06:56:08;95970.66;;;-0.74;100.00
4012;BME280;2020;48.682;9.024;2023-11-25T06:58:34;95983.34;;;-0.72;100.00
4012;BME280;2020;48.682;9.024;2023-11-25T07:00:59;95982.13;;;-0.67;100.00
4012;BME280;2020;48.682;9.024;2023-11-25T07:03:29;95980.50;;;-0.68;100.00
4012;BME280;2020;48.682;9.024;2023-11-25T07:05:55;95984.31;;;-0.61;100.00
4012;BME280;2020;48.682;9.024;2023-11-25T07:08:22;95986.25;;;-0.64;98.04
4012;BME280;2020;48.682;9.024;2023-11-25T07:10:47;95986.88;;;-0.61;98.52
4012;BME280;2020;48.682;9.024;2023-11-25T07:13:21;95990.88;;;-0.56;98.17
4012;BME280;2020;48.682;9.024;2023-11-25T07:15:47;95990.56;;;-0.65;98.16
4012;BME280;2020;48.682;9.024;2023-11-25T07:18:12;95995.47;;;-0.62;97.35
4012;BME280;2020;48.682;9.024;2023-11-25T07:20:39;95988.72;;;-0.63;97.25
4012;BME280;2020;48.682;9.024;2023-11-25T07:23:04;95997.31;;;-0.64;97.19
4012;BME280;2020;48.682;9.024;2023-11-25T07:25:29;96001.78;;;-0.67;97.83
4012;BME280;2020;48.682;9.024;2023-11-25T07:27:57;96010.09;;;-0.64;98.96
4012;BME280;2020;48.682;9.024;2023-11-25T07:30:22;96006.81;;;-0.66;98.31
4012;BME280;2020;48.682;9.024;2023-11-25T07:32:47;96005.88;;;-0.65;97.63
4012;BME280;2020;48.682;9.024;2023-11-25T07:35:13;96008.97;;;-0.60;98.81
4012;BME280;2020;48.682;9.024;2023-11-25T07:37:38;96002.03;;;-0.57;98.75
4012;BME280;2020;48.682;9.024;2023-11-25T07:40:04;96003.47;;;-0.53;97.98
4012;BME280;2020;48.682;9.024;2023-11-25T07:42:34;96001.31;;;-0.60;97.91
4012;BME280;2020;48.682;9.024;2023-11-25T07:45:00;96012.06;;;-0.54;97.46
4012;BME280;2020;48.682;9.024;2023-11-25T07:47:25;96011.84;;;-0.51;97.84
4012;BME280;2020;48.682;9.024;2023-11-25T07:49:50;96009.19;;;-0.50;97.34
4012;BME280;2020;48.682;9.024;2023-11-25T07:52:16;96001.44;;;-0.48;97.79
4012;BME280;2020;48.682;9.024;2023-11-25T07:54:41;96010.03;;;-0.49;97.56
4012;BME280;2020;48.682;9.024;2023-11-25T07:57:07;96017.16;;;-0.54;97.21
4012;BME280;2020;48.682;9.024;2023-11-25T07:59:33;96019.81;;;-0.56;97.18
4012;BME280;2020;48.682;9.024;2023-11-25T08:01:58;96016.84;;;-0.63;97.41
4012;BME280;2020;48.682;9.024;2023-11-25T08:04:24;96011.84;;;-0.51;97.51
4012;BME280;2020;48.682;9.024;2023-11-25T08:06:50;96010.22;;;-0.52;97.06
4012;BME280;2020;48.682;9.024;2023-11-25T08:09:15;96024.97;;;-0.43;97.91
4012;BME280;2020;48.682;9.024;2023-11-25T08:11:43;96020.06;;;-0.33;98.71
4012;BME280;2020;48.682;9.024;2023-11-25T08:14:08;96026.53;;;-0.27;98.16
4012;BME280;2020;48.682;9.024;2023-11-25T08:16:33;96017.13;;;-0.27;96.52
4012;BME280;2020;48.682;9.024;2023-11-25T08:18:59;96023.59;;;-0.21;97.29
4012;BME280;2020;48.682;9.024;2023-11-25T08:21:24;96031.38;;;-0.10;96.70
4012;BME280;2020;48.682;9.024;2023-11-25T08:23:49;96017.16;;;-0.14;95.74
4012;BME280;2020;48.682;9.024;2023-11-25T08:26:19;96013.34;;;-0.08;95.33
4012;BME280;2020;48.682;9.024;2023-11-25T08:28:44;96005.19;;;-0.01;94.25
4012;BME280;2020;48.682;9.024;2023-11-25T08:31:10;96017.47;;;0.20;95.58
4012;BME280;2020;48.682;9.024;2023-11-25T08:33:36;96015.00;;;0.57;94.22
4012;BME280;2020;48.682;9.024;2023-11-25T08:36:01;96000.34;;;0.60;93.09
4012;BME280;2020;48.682;9.024;2023-11-25T08:38:26;96010.09;;;0.54;92.89
4012;BME280;2020;48.682;9.024;2023-11-25T08:40:51;96014.63;;;0.51;93.05
4012;BME280;2020;48.682;9.024;2023-11-25T08:43:17;96016.13;;;0.53;93.77
4012;BME280;2020;48.682;9.024;2023-11-25T08:45:43;96008.88;;;0.47;93.69
4012;BME280;2020;48.682;9.024;2023-11-25T08:48:13;96011.50;;;0.58;94.84
4012;BME280;2020;48.682;9.024;2023-11-25T08:50:39;96011.34;;;0.49;93.60
4012;BME280;2020;48.682;9.024;2023-11-25T08:53:04;96007.06;;;0.36;93.78
4012;BME280;2020;48.682;9.024;2023-11-25T08:55:30;96013.38;;;0.31;94.95
4012;BME280;2020;48.682;9.024;2023-11-25T08:57:55;96024.25;;;0.21;95.73
4012;BME280;2020;48.682;9.024;2023-11-25T09:00:20;96022.72;;;0.19;96.76
4012;BME280;2020;48.682;9.024;2023-11-25T09:02:47;96025.69;;;0.25;96.98
4012;BME280;2020;48.682;9.024;2023-11-25T09:05:18;96024.03;;;0.24;97.01
4012;BME280;2020;48.682;9.024;2023-11-25T09:07:48;96019.72;;;0.38;99.08
4012;BME280;2020;48.682;9.024;2023-11-25T09:10:16;96028.97;;;0.40;98.69
4012;BME280;2020;48.682;9.024;2023-11-25T09:12:41;96024.66;;;0.41;97.15
4012;BME280;2020;48.682;9.024;2023-11-25T09:15:07;96029.06;;;0.39;97.80
4012;BME280;2020;48.682;9.024;2023-11-25T09:17:34;96027.63;;;0.35;97.58
4012;BME280;2020;48.682;9.024;2023-11-25T09:20:05;96020.97;;;0.32;98.56
4012;BME280;2020;48.682;9.024;2023-11-25T09:22:32;96024.66;;;0.28;98.00
4012;BME280;2020;48.682;9.024;2023-11-25T09:24:57;96033.66;;;0.34;99.16
4012;BME280;2020;48.682;9.024;2023-11-25T09:27:23;96027.75;;;0.33;99.79
4012;BME280;2020;48.682;9.024;2023-11-25T09:29:48;96031.72;;;0.37;99.04
4012;BME280;2020;48.682;9.024;2023-11-25T09:32:14;96023.63;;;0.31;99.55
4012;BME280;2020;48.682;9.024;2023-11-25T09:34:39;96024.53;;;0.29;99.76
4012;BME280;2020;48.682;9.024;2023-11-25T09:37:04;96027.81;;;0.32;100.00
4012;BME280;2020;48.682;9.024;2023-11-25T09:39:30;96016.25;;;0.39;100.00
4012;BME280;2020;48.682;9.024;2023-11-25T09:41:56;96010.50;;;0.48;99.85
4012;BME280;2020;48.682;9.024;2023-11-25T09:44:21;96015.22;;;0.54;98.50
4012;BME280;2020;48.682;9.024;2023-11-25T09:46:49;96005.53;;;0.97;99.62
4012;BME280;2020;48.682;9.024;2023-11-25T09:49:15;96017.09;;;1.27;94.46
4012;BME280;2020;48.682;9.024;2023-11-25T09:51:44;96007.81;;;1.37;93.69
4012;BME280;2020;48.682;9.024;2023-11-25T09:54:15;96007.56;;;1.29;92.63
4012;BME280;2020;48.682;9.024;2023-11-25T09:56:43;95996.38;;;1.30;93.29
4012;BME280;2020;48.682;9.024;2023-11-25T09:59:11;96009.09;;;1.67;94.15
4012;BME280;2020;48.682;9.024;2023-11-25T10:01:37;95995.56;;;2.12;90.82
4012;BME280;2020;48.682;9.024;2023-11-25T10:04:02;95998.28;;;2.22;88.98
4012;BME280;2020;48.682;9.024;2023-11-25T10:06:29;95996.91;;;2.41;87.21
4012;BME280;2020;48.682;9.024;2023-11-25T10:08:54;95992.00;;;2.60;94.25
4012;BME280;2020;48.682;9.024;2023-11-25T10:11:19;95984.75;;;2.09;87.82
4012;BME280;2020;48.682;9.024;2023-11-25T10:13:48;95992.91;;;2.02;87.26
4012;BME280;2020;48.682;9.024;2023-11-25T10:16:13;95984.75;;;2.09;86.79
4012;BME280;2020;48.682;9.024;2023-11-25T10:18:49;95988.00;;;1.99;88.43
4012;BME280;2020;48.682;9.024;2023-11-25T10:21:15;95978.31;;;2.14;88.29
4012;BME280;2020;48.682;9.024;2023-11-25T10:23:40;95982.88;;;2.33;88.86
4012;BME280;2020;48.682;9.024;2023-11-25T10:26:06;95981.13;;;2.34;87.13
4012;BME280;2020;48.682;9.024;2023-11-25T10:28:33;95975.88;;;2.47;85.76
4012;BME280;2020;48.682;9.024;2023-11-25T10:31:03;95979.47;;;3.01;86.45
4012;BME280;2020;48.682;9.024;2023-11-25T10:33:33;95973.41;;;3.35;85.25
4012;BME280;2020;48.682;9.024;2023-11-25T10:35:59;95970.75;;;3.58;82.54
4012;BME280;2020;48.682;9.024;2023-11-25T10:38:26;95960.31;;;3.38;80.83
4012;BME280;2020;48.682;9.024;2023-11-25T10:41:02;95947.28;;;3.07;83.12
4012;BME280;2020;48.682;9.024;2023-11-25T10:43:28;95947.47;;;2.83;83.07
4012;BME280;2020;48.682;9.024;2023-11-25T10:46:05;95944.13;;;2.59;82.89
4012;BME280;2020;48.682;9.024;2023-11-25T10:48:30;95941.75;;;2.68;84.70
4012;BME280;2020;48.682;9.024;2023-11-25T10:50:57;95933.44;;;2.87;83.37
4012;BME280;2020;48.682;9.024;2023-11-25T10:53:27;95923.50;;;2.82;81.51
4012;BME280;2020;48.682;9.024;2023-11-25T10:55:58;95924.84;;;3.09;82.21
4012;BME280;2020;48.682;9.024;2023-11-25T10:58:24;95926.06;;;3.26;80.73
4012;BME280;2020;48.682;9.024;2023-11-25T11:00:52;95923.84;;;3.21;79.60
4012;BME280;2020;48.682;9.024;2023-11-25T11:03:20;95918.78;;;2.99;82.30
4012;BME280;2020;48.682;9.024;2023-11-25T11:05:51;95927.59;;;2.85;80.09
4012;BME280;2020;48.682;9.024;2023-11-25T11:08:26;95929.38;;;2.73;79.87
4012;BME280;2020;48.682;9.024;2023-11-25T11:11:00;95922.97;;;2.56;80.55
4012;BME280;2020;48.682;9.024;2023-11-25T11:13:34;95926.16;;;2.25;81.03
4012;BME280;2020;48.682;9.024;2023-11-25T11:16:07;95924.53;;;2.24;82.58
4012;BME280;2020;48.682;9.024;2023-11-25T11:18:36;95920.31;;;2.34;84.58
4012;BME280;2020;48.682;9.024;2023-11-25T11:21:06;95912.13;;;2.41;82.28
4012;BME280;2020;48.682;9.024;2023-11-25T11:23:32;95920.75;;;2.51;81.25
4012;BME280;2020;48.682;9.024;2023-11-25T11:26:25;95916.78;;;3.14;82.93
4012;BME280;2020;48.682;9.024;2023-11-25T11:31:56;95926.53;;;2.87;79.16
4012;BME280;2020;48.682;9.024;2023-11-25T11:34:24;95925.75;;;2.75;78.44
4012;BME280;2020;48.682;9.024;2023-11-25T11:36:51;95924.69;;;2.78;81.30
4012;BME280;2020;48.682;9.024;2023-11-25T11:39:33;95920.53;;;2.54;80.54
4012;BME280;2020;48.682;9.024;2023-11-25T11:42:24;95923.78;;;2.56;83.44
4012;BME280;2020;48.682;9.024;2023-11-25T11:47:58;95916.69;;;2.26;83.48
4012;BME280;2020;48.682;9.024;2023-11-25T11:50:32;95914.94;;;2.15;83.75
4012;BME280;2020;48.682;9.024;2023-11-25T11:58:02;95910.66;;;1.57;89.84
4012;BME280;2020;48.682;9.024;2023-11-25T12:00:28;95918.56;;;1.42;91.93
4012;BME280;2020;48.682;9.024;2023-11-25T12:02:55;95911.75;;;1.30;93.99
4012;BME280;2020;48.682;9.024;2023-11-25T12:05:20;95917.31;;;1.24;96.39
4012;BME280;2020;48.682;9.024;2023-11-25T12:07:45;95919.50;;;1.17;99.28
4012;BME280;2020;48.682;9.024;2023-11-25T12:10:11;95912.50;;;1.19;100.00
4012;BME280;2020;48.682;9.024;2023-11-25T12:12:40;95914.72;;;1.12;100.00
4012;BME280;2020;48.682;9.024;2023-11-25T12:15:06;95914.97;;;1.21;100.00
4012;BME280;2020;48.682;9.024;2023-11-25T12:17:33;95914.22;;;1.07;100.00
4012;BME280;2020;48.682;9.024;2023-11-25T12:19:59;95910.28;;;1.14;100.00
4012;BME280;2020;48.682;9.024;2023-11-25T12:22:25;95901.00;;;1.25;100.00
4012;BME280;2020;48.682;9.024;2023-11-25T12:24:51;95901.81;;;1.25;100.00
4012;BME280;2020;48.682;9.024;2023-11-25T12:27:17;95905.47;;;1.34;100.00
4012;BME280;2020;48.682;9.024;2023-11-25T12:29:43;95907.09;;;1.35;100.00
4012;BME280;2020;48.682;9.024;2023-11-25T12:32:08;95904.44;;;1.37;100.00
4012;BME280;2020;48.682;9.024;2023-11-25T12:34:33;95896.34;;;1.19;100.00
4012;BME280;2020;48.682;9.024;2023-11-25T12:36:59;95894.91;;;1.14;100.00
4012;BME280;2020;48.682;9.024;2023-11-25T12:39:26;95892.44;;;1.13;100.00
4012;BME280;2020;48.682;9.024;2023-11-25T12:41:52;95888.84;;;1.15;100.00
4012;BME280;2020;48.682;9.024;2023-11-25T12:44:18;95888.38;;;1.10;100.00
4012;BME280;2020;48.682;9.024;2023-11-25T12:47:02;95883.03;;;1.13;100.00
4012;BME280;2020;48.682;9.024;2023-11-25T12:49:29;95884.22;;;1.21;100.00
4012;BME280;2020;48.682;9.024;2023-11-25T12:51:54;95875.72;;;1.31;100.00
4012;BME280;2020;48.682;9.024;2023-11-25T12:54:20;95872.16;;;1.45;100.00
4012;BME280;2020;48.682;9.024;2023-11-25T12:56:48;95876.84;;;1.52;100.00
4012;BME280;2020;48.682;9.024;2023-11-25T12:59:22;95876.16;;;1.61;100.00
4012;BME280;2020;48.682;9.024;2023-11-25T13:01:48;95876.59;;;1.55;100.00
4012;BME280;2020;48.682;9.024;2023-11-25T13:04:14;95874.66;;;1.58;100.00
4012;BME280;2020;48.682;9.024;2023-11-25T13:06:47;95876.84;;;1.63;100.00
4012;BME280;2020;48.682;9.024;2023-11-25T13:09:13;95881.06;;;1.64;100.00
4012;BME280;2020;48.682;9.024;2023-11-25T13:11:40;95877.78;;;1.62;100.00
4012;BME280;2020;48.682;9.024;2023-11-25T13:14:05;95875.44;;;1.48;100.00
4012;BME280;2020;48.682;9.024;2023-11-25T13:16:30;95877.75;;;1.39;100.00
4012;BME280;2020;48.682;9.024;2023-11-25T13:18:55;95867.94;;;1.33;100.00
4012;BME280;2020;48.682;9.024;2023-11-25T13:21:23;95869.59;;;1.45;100.00
4012;BME280;2020;48.682;9.024;2023-11-25T13:23:49;95860.03;;;1.36;100.00
4012;BME280;2020;48.682;9.024;2023-11-25T13:26:15;95868.72;;;1.22;100.00
4012;BME280;2020;48.682;9.024;2023-11-25T13:28:40;95865.19;;;1.12;100.00
4012;BME280;2020;48.682;9.024;2023-11-25T13:31:05;95854.13;;;1.11;100.00